sensor_id;sensor_type;location;lat;lon;timestamp;P1;durP1;ratioP1;P2;durP2;ratioP2
63398;SDS011;49533;-34.520;150.798;2024-01-25T00:01:02;7.90;;;2.97;;
63398;SDS011;49533;-34.520;150.798;2024-01-25T00:03:38;8.32;;;2.85;;
63398;SDS011;49533;-34.520;150.798;2024-01-25T00:06:05;7.85;;;3.00;;
63398;SDS011;49533;-34.520;150.798;2024-01-25T00:08:33;9.98;;;3.40;;
63398;SDS011;49533;-34.520;150.798;2024-01-25T00:11:04;7.88;;;3.05;;
63398;SDS011;49533;-34.520;150.798;2024-01-25T00:13:32;6.13;;;2.72;;
63398;SDS011;49533;-34.520;150.798;2024-01-25T00:16:05;7.47;;;3.30;;
63398;SDS011;49533;-34.520;150.798;2024-01-25T00:18:32;7.75;;;2.83;;
63398;SDS011;49533;-34.520;150.798;2024-01-25T00:20:59;9.25;;;3.28;;
63398;SDS011;49533;-34.520;150.798;2024-01-25T00:23:27;7.93;;;3.03;;
63398;SDS011;49533;-34.520;150.798;2024-01-25T00:25:54;11.27;;;2.83;;
63398;SDS011;49533;-34.520;150.798;2024-01-25T00:28:25;6.63;;;2.65;;
63398;SDS011;49533;-34.520;150.798;2024-01-25T00:30:53;6.03;;;2.95;;
63398;SDS011;49533;-34.520;150.798;2024-01-25T00:33:20;6.30;;;3.10;;
63398;SDS011;49533;-34.520;150.798;2024-01-25T00:35:48;7.07;;;3.35;;
63398;SDS011;49533;-34.520;150.798;2024-01-25T00:38:15;9.82;;;3.33;;
63398;SDS011;49533;-34.520;150.798;2024-01-25T00:40:43;6.50;;;2.80;;
63398;SDS011;49533;-34.520;150.798;2024-01-25T00:43:10;7.05;;;2.97;;
63398;SDS011;49533;-34.520;150.798;2024-01-25T00:45:37;8.93;;;3.30;;
63398;SDS011;49533;-34.520;150.798;2024-01-25T00:48:05;12.20;;;2.97;;
63398;SDS011;49533;-34.520;150.798;2024-01-25T00:50:33;7.70;;;3.28;;
63398;SDS011;49533;-34.520;150.798;2024-01-25T00:53:00;6.88;;;2.95;;
63398;SDS011;49533;-34.520;150.798;2024-01-25T00:55:27;6.57;;;2.78;;
63398;SDS011;49533;-34.520;150.798;2024-01-25T00:57:55;7.70;;;2.97;;
63398;SDS011;49533;-34.520;150.798;2024-01-25T01:00:25;8.82;;;2.58;;
63398;SDS011;49533;-34.520;150.798;2024-01-25T01:02:52;9.50;;;3.33;;
63398;SDS011;49533;-34.520;150.798;2024-01-25T01:05:20;10.48;;;3.10;;
63398;SDS011;49533;-34.520;150.798;2024-01-25T01:07:47;6.72;;;2.75;;
63398;SDS011;49533;-34.520;150.798;2024-01-25T01:10:15;7.57;;;3.22;;
63398;SDS011;49533;-34.520;150.798;2024-01-25T01:12:42;6.70;;;2.53;;
63398;SDS011;49533;-34.520;150.798;2024-01-25T01:15:09;10.63;;;3.35;;
63398;SDS011;49533;-34.520;150.798;2024-01-25T01:17:36;9.32;;;3.08;;
63398;SDS011;49533;-34.520;150.798;2024-01-25T01:20:03;6.07;;;3.13;;
63398;SDS011;49533;-34.520;150.798;2024-01-25T01:22:31;8.32;;;2.90;;
63398;SDS011;49533;-34.520;150.798;2024-01-25T01:24:58;8.73;;;3.35;;
63398;SDS011;49533;-34.520;150.798;2024-01-25T01:27:26;7.30;;;2.60;;
63398;SDS011;49533;-34.520;150.798;2024-01-25T01:29:53;6.70;;;2.90;;
63398;SDS011;49533;-34.520;150.798;2024-01-25T01:32:20;7.20;;;3.00;;
63398;SDS011;49533;-34.520;150.798;2024-01-25T01:34:47;7.65;;;2.90;;
63398;SDS011;49533;-34.520;150.798;2024-01-25T01:37:14;9.23;;;2.85;;
63398;SDS011;49533;-34.520;150.798;2024-01-25T01:39:41;6.10;;;2.75;;
63398;SDS011;49533;-34.520;150.798;2024-01-25T01:42:08;11.25;;;3.78;;
63398;SDS011;49533;-34.520;150.798;2024-01-25T01:44:35;6.90;;;3.13;;
63398;SDS011;49533;-34.520;150.798;2024-01-25T01:47:03;9.32;;;3.35;;
63398;SDS011;49533;-34.520;150.798;2024-01-25T01:49:30;7.55;;;3.08;;
63398;SDS011;49533;-34.520;150.798;2024-01-25T01:51:57;11.30;;;3.22;;
63398;SDS011;49533;-34.520;150.798;2024-01-25T01:54:25;8.95;;;3.10;;
63398;SDS011;49533;-34.520;150.798;2024-01-25T01:56:52;7.75;;;2.63;;
63398;SDS011;49533;-34.520;150.798;2024-01-25T01:59:33;8.32;;;2.67;;
63398;SDS011;49533;-34.520;150.798;2024-01-25T02:02:00;8.63;;;3.22;;
63398;SDS011;49533;-34.520;150.798;2024-01-25T02:04:27;10.77;;;3.42;;
63398;SDS011;49533;-34.520;150.798;2024-01-25T02:06:54;9.00;;;3.25;;
63398;SDS011;49533;-34.520;150.798;2024-01-25T02:09:22;7.65;;;2.78;;
63398;SDS011;49533;-34.520;150.798;2024-01-25T02:11:58;7.72;;;3.22;;
63398;SDS011;49533;-34.520;150.798;2024-01-25T02:14:26;8.10;;;2.95;;
63398;SDS011;49533;-34.520;150.798;2024-01-25T02:16:54;9.18;;;2.50;;
63398;SDS011;49533;-34.520;150.798;2024-01-25T02:19:21;7.95;;;3.08;;
63398;SDS011;49533;-34.520;150.798;2024-01-25T02:21:48;11.20;;;3.70;;
63398;SDS011;49533;-34.520;150.798;2024-01-25T02:24:20;10.98;;;2.83;;
63398;SDS011;49533;-34.520;150.798;2024-01-25T02:26:47;8.93;;;3.30;;
63398;SDS011;49533;-34.520;150.798;2024-01-25T02:29:14;9.40;;;2.78;;
63398;SDS011;49533;-34.520;150.798;2024-01-25T02:31:42;10.77;;;3.38;;
63398;SDS011;49533;-34.520;150.798;2024-01-25T02:34:09;7.40;;;3.03;;
63398;SDS011;49533;-34.520;150.798;2024-01-25T02:36:36;9.95;;;2.80;;
63398;SDS011;49533;-34.520;150.798;2024-01-25T02:39:03;12.75;;;4.00;;
63398;SDS011;49533;-34.520;150.798;2024-01-25T02:41:33;8.05;;;2.92;;
63398;SDS011;49533;-34.520;150.798;2024-01-25T02:44:00;12.70;;;3.58;;
63398;SDS011;49533;-34.520;150.798;2024-01-25T02:46:27;22.60;;;4.50;;
63398;SDS011;49533;-34.520;150.798;2024-01-25T02:48:54;9.85;;;3.30;;
63398;SDS011;49533;-34.520;150.798;2024-01-25T02:51:22;12.73;;;3.58;;
63398;SDS011;49533;-34.520;150.798;2024-01-25T02:53:49;15.25;;;4.22;;
63398;SDS011;49533;-34.520;150.798;2024-01-25T02:56:16;11.18;;;3.45;;
63398;SDS011;49533;-34.520;150.798;2024-01-25T02:58:43;14.95;;;3.85;;
63398;SDS011;49533;-34.520;150.798;2024-01-25T03:01:10;14.40;;;3.80;;
63398;SDS011;49533;-34.520;150.798;2024-01-25T03:03:37;13.35;;;3.95;;
63398;SDS011;49533;-34.520;150.798;2024-01-25T03:06:05;14.73;;;3.72;;
63398;SDS011;49533;-34.520;150.798;2024-01-25T03:08:33;12.55;;;3.72;;
63398;SDS011;49533;-34.520;150.798;2024-01-25T03:11:01;15.73;;;3.95;;
63398;SDS011;49533;-34.520;150.798;2024-01-25T03:13:30;15.27;;;3.97;;
63398;SDS011;49533;-34.520;150.798;2024-01-25T03:15:57;14.07;;;4.05;;
63398;SDS011;49533;-34.520;150.798;2024-01-25T03:18:24;15.15;;;4.10;;
63398;SDS011;49533;-34.520;150.798;2024-01-25T03:20:52;11.77;;;3.45;;
63398;SDS011;49533;-34.520;150.798;2024-01-25T03:23:19;13.90;;;4.03;;
63398;SDS011;49533;-34.520;150.798;2024-01-25T03:25:46;15.63;;;4.03;;
63398;SDS011;49533;-34.520;150.798;2024-01-25T03:28:13;9.60;;;3.53;;
63398;SDS011;49533;-34.520;150.798;2024-01-25T03:30:42;16.33;;;4.07;;
63398;SDS011;49533;-34.520;150.798;2024-01-25T03:33:09;11.68;;;3.38;;
63398;SDS011;49533;-34.520;150.798;2024-01-25T03:35:36;16.75;;;3.88;;
63398;SDS011;49533;-34.520;150.798;2024-01-25T03:38:03;11.43;;;3.78;;
63398;SDS011;49533;-34.520;150.798;2024-01-25T03:40:30;10.60;;;3.20;;
63398;SDS011;49533;-34.520;150.798;2024-01-25T03:42:57;15.10;;;3.63;;
63398;SDS011;49533;-34.520;150.798;2024-01-25T03:45:24;17.33;;;3.83;;
63398;SDS011;49533;-34.520;150.798;2024-01-25T03:47:52;16.73;;;3.88;;
63398;SDS011;49533;-34.520;150.798;2024-01-25T03:50:19;13.20;;;3.88;;
63398;SDS011;49533;-34.520;150.798;2024-01-25T03:52:46;15.23;;;4.32;;
63398;SDS011;49533;-34.520;150.798;2024-01-25T03:55:13;17.80;;;4.47;;
63398;SDS011;49533;-34.520;150.798;2024-01-25T03:57:40;16.58;;;4.20;;
63398;SDS011;49533;-34.520;150.798;2024-01-25T04:00:07;16.90;;;4.05;;
63398;SDS011;49533;-34.520;150.798;2024-01-25T04:02:35;17.08;;;4.13;;
63398;SDS011;49533;-34.520;150.798;2024-01-25T04:05:02;12.93;;;3.70;;
63398;SDS011;49533;-34.520;150.798;2024-01-25T04:07:30;18.30;;;4.88;;
63398;SDS011;49533;-34.520;150.798;2024-01-25T04:09:57;20.73;;;4.18;;
63398;SDS011;49533;-34.520;150.798;2024-01-25T04:12:24;17.42;;;4.20;;
63398;SDS011;49533;-34.520;150.798;2024-01-25T04:14:52;17.45;;;4.65;;
63398;SDS011;49533;-34.520;150.798;2024-01-25T04:17:40;17.58;;;3.88;;
63398;SDS011;49533;-34.520;150.798;2024-01-25T04:20:07;16.45;;;4.50;;
63398;SDS011;49533;-34.520;150.798;2024-01-25T04:22:35;17.40;;;4.10;;
63398;SDS011;49533;-34.520;150.798;2024-01-25T04:25:03;13.93;;;4.05;;
63398;SDS011;49533;-34.520;150.798;2024-01-25T04:27:30;19.90;;;4.88;;
63398;SDS011;49533;-34.520;150.798;2024-01-25T04:29:57;16.70;;;3.88;;
63398;SDS011;49533;-34.520;150.798;2024-01-25T04:32:24;15.20;;;3.65;;
63398;SDS011;49533;-34.520;150.798;2024-01-25T04:34:52;19.20;;;4.95;;
63398;SDS011;49533;-34.520;150.798;2024-01-25T04:37:19;13.32;;;3.67;;
63398;SDS011;49533;-34.520;150.798;2024-01-25T04:39:46;13.55;;;3.90;;
63398;SDS011;49533;-34.520;150.798;2024-01-25T04:42:13;14.35;;;4.30;;
63398;SDS011;49533;-34.520;150.798;2024-01-25T04:44:40;11.57;;;3.22;;
63398;SDS011;49533;-34.520;150.798;2024-01-25T04:47:08;20.25;;;4.38;;
63398;SDS011;49533;-34.520;150.798;2024-01-25T04:49:36;15.05;;;4.10;;
63398;SDS011;49533;-34.520;150.798;2024-01-25T04:52:12;15.32;;;4.43;;
63398;SDS011;49533;-34.520;150.798;2024-01-25T04:54:41;15.45;;;3.50;;
63398;SDS011;49533;-34.520;150.798;2024-01-25T04:57:09;16.00;;;3.78;;
63398;SDS011;49533;-34.520;150.798;2024-01-25T04:59:36;15.95;;;4.22;;
63398;SDS011;49533;-34.520;150.798;2024-01-25T05:02:03;13.93;;;4.05;;
63398;SDS011;49533;-34.520;150.798;2024-01-25T05:04:30;15.88;;;3.92;;
63398;SDS011;49533;-34.520;150.798;2024-01-25T05:06:57;15.38;;;3.60;;
63398;SDS011;49533;-34.520;150.798;2024-01-25T05:09:24;11.80;;;3.55;;
63398;SDS011;49533;-34.520;150.798;2024-01-25T05:11:51;16.63;;;4.28;;
63398;SDS011;49533;-34.520;150.798;2024-01-25T05:14:24;15.27;;;3.67;;
63398;SDS011;49533;-34.520;150.798;2024-01-25T05:16:51;12.30;;;3.42;;
63398;SDS011;49533;-34.520;150.798;2024-01-25T05:19:18;13.07;;;3.63;;
63398;SDS011;49533;-34.520;150.798;2024-01-25T05:21:45;13.48;;;3.53;;
63398;SDS011;49533;-34.520;150.798;2024-01-25T05:24:13;12.05;;;3.40;;
63398;SDS011;49533;-34.520;150.798;2024-01-25T05:26:41;11.38;;;3.47;;
63398;SDS011;49533;-34.520;150.798;2024-01-25T05:29:08;11.35;;;3.25;;
63398;SDS011;49533;-34.520;150.798;2024-01-25T05:31:35;13.43;;;3.80;;
63398;SDS011;49533;-34.520;150.798;2024-01-25T05:34:02;9.13;;;3.53;;
63398;SDS011;49533;-34.520;150.798;2024-01-25T05:36:30;12.35;;;3.50;;
63398;SDS011;49533;-34.520;150.798;2024-01-25T05:38:57;12.20;;;3.53;;
63398;SDS011;49533;-34.520;150.798;2024-01-25T05:41:24;15.90;;;4.30;;
63398;SDS011;49533;-34.520;150.798;2024-01-25T05:43:51;13.13;;;4.00;;
63398;SDS011;49533;-34.520;150.798;2024-01-25T05:46:18;16.73;;;4.15;;
63398;SDS011;49533;-34.520;150.798;2024-01-25T05:48:45;15.15;;;4.00;;
63398;SDS011;49533;-34.520;150.798;2024-01-25T05:51:12;14.25;;;3.85;;
63398;SDS011;49533;-34.520;150.798;2024-01-25T05:53:39;16.98;;;4.00;;
63398;SDS011;49533;-34.520;150.798;2024-01-25T05:56:06;19.38;;;4.43;;
63398;SDS011;49533;-34.520;150.798;2024-01-25T05:58:34;13.57;;;3.60;;
63398;SDS011;49533;-34.520;150.798;2024-01-25T06:01:01;18.40;;;4.68;;
63398;SDS011;49533;-34.520;150.798;2024-01-25T06:03:28;15.23;;;4.55;;
63398;SDS011;49533;-34.520;150.798;2024-01-25T06:05:55;15.30;;;4.80;;
63398;SDS011;49533;-34.520;150.798;2024-01-25T06:08:22;19.33;;;4.93;;
63398;SDS011;49533;-34.520;150.798;2024-01-25T06:10:49;19.83;;;4.65;;
63398;SDS011;49533;-34.520;150.798;2024-01-25T06:13:16;20.15;;;5.65;;
63398;SDS011;49533;-34.520;150.798;2024-01-25T06:15:43;21.70;;;5.50;;
63398;SDS011;49533;-34.520;150.798;2024-01-25T06:18:10;15.60;;;4.32;;
63398;SDS011;49533;-34.520;150.798;2024-01-25T06:20:37;17.70;;;5.20;;
63398;SDS011;49533;-34.520;150.798;2024-01-25T06:23:05;15.60;;;4.45;;
63398;SDS011;49533;-34.520;150.798;2024-01-25T06:25:32;21.77;;;5.35;;
63398;SDS011;49533;-34.520;150.798;2024-01-25T06:28:00;20.33;;;4.90;;
63398;SDS011;49533;-34.520;150.798;2024-01-25T06:30:29;15.02;;;4.13;;
63398;SDS011;49533;-34.520;150.798;2024-01-25T06:32:56;19.17;;;5.00;;
63398;SDS011;49533;-34.520;150.798;2024-01-25T06:35:23;19.92;;;5.40;;
63398;SDS011;49533;-34.520;150.798;2024-01-25T06:37:53;21.65;;;5.28;;
63398;SDS011;49533;-34.520;150.798;2024-01-25T06:40:20;16.40;;;5.13;;
63398;SDS011;49533;-34.520;150.798;2024-01-25T06:42:47;14.23;;;4.45;;
63398;SDS011;49533;-34.520;150.798;2024-01-25T06:45:14;20.08;;;4.78;;
63398;SDS011;49533;-34.520;150.798;2024-01-25T06:47:41;15.48;;;5.45;;
63398;SDS011;49533;-34.520;150.798;2024-01-25T06:50:08;18.50;;;4.40;;
63398;SDS011;49533;-34.520;150.798;2024-01-25T06:52:36;16.67;;;4.82;;
63398;SDS011;49533;-34.520;150.798;2024-01-25T06:55:03;17.50;;;4.88;;
63398;SDS011;49533;-34.520;150.798;2024-01-25T06:57:30;17.67;;;4.50;;
63398;SDS011;49533;-34.520;150.798;2024-01-25T06:59:57;11.80;;;4.00;;
63398;SDS011;49533;-34.520;150.798;2024-01-25T07:02:24;19.95;;;4.88;;
63398;SDS011;49533;-34.520;150.798;2024-01-25T07:04:51;23.63;;;5.10;;
63398;SDS011;49533;-34.520;150.798;2024-01-25T07:07:19;15.40;;;4.63;;
63398;SDS011;49533;-34.520;150.798;2024-01-25T07:09:46;16.50;;;5.05;;
63398;SDS011;49533;-34.520;150.798;2024-01-25T07:12:14;12.93;;;4.43;;
63398;SDS011;49533;-34.520;150.798;2024-01-25T07:14:41;13.00;;;4.10;;
63398;SDS011;49533;-34.520;150.798;2024-01-25T07:17:08;13.70;;;4.05;;
63398;SDS011;49533;-34.520;150.798;2024-01-25T07:19:35;14.55;;;4.10;;
63398;SDS011;49533;-34.520;150.798;2024-01-25T07:22:03;13.15;;;4.00;;
63398;SDS011;49533;-34.520;150.798;2024-01-25T07:24:30;15.95;;;4.10;;
63398;SDS011;49533;-34.520;150.798;2024-01-25T07:26:58;14.90;;;4.32;;
63398;SDS011;49533;-34.520;150.798;2024-01-25T07:29:25;15.95;;;4.78;;
63398;SDS011;49533;-34.520;150.798;2024-01-25T07:31:52;17.35;;;4.57;;
63398;SDS011;49533;-34.520;150.798;2024-01-25T07:34:19;16.88;;;4.15;;
63398;SDS011;49533;-34.520;150.798;2024-01-25T07:36:46;21.02;;;5.10;;
63398;SDS011;49533;-34.520;150.798;2024-01-25T07:39:13;17.20;;;4.35;;
63398;SDS011;49533;-34.520;150.798;2024-01-25T07:41:40;15.07;;;4.00;;
63398;SDS011;49533;-34.520;150.798;2024-01-25T07:44:07;20.92;;;4.57;;
63398;SDS011;49533;-34.520;150.798;2024-01-25T07:46:34;19.63;;;4.43;;
63398;SDS011;49533;-34.520;150.798;2024-01-25T07:49:01;17.75;;;4.55;;
63398;SDS011;49533;-34.520;150.798;2024-01-25T07:51:28;10.00;;;3.67;;
63398;SDS011;49533;-34.520;150.798;2024-01-25T07:53:56;14.05;;;4.22;;
63398;SDS011;49533;-34.520;150.798;2024-01-25T07:56:23;12.13;;;3.78;;
63398;SDS011;49533;-34.520;150.798;2024-01-25T07:58:50;12.93;;;4.00;;
63398;SDS011;49533;-34.520;150.798;2024-01-25T08:01:17;10.43;;;3.45;;
63398;SDS011;49533;-34.520;150.798;2024-01-25T08:03:44;11.40;;;3.80;;
63398;SDS011;49533;-34.520;150.798;2024-01-25T08:06:12;12.88;;;4.13;;
63398;SDS011;49533;-34.520;150.798;2024-01-25T08:08:39;11.27;;;3.65;;
63398;SDS011;49533;-34.520;150.798;2024-01-25T08:11:07;9.27;;;3.55;;
63398;SDS011;49533;-34.520;150.798;2024-01-25T08:13:34;11.00;;;3.65;;
63398;SDS011;49533;-34.520;150.798;2024-01-25T08:16:01;10.95;;;3.47;;
63398;SDS011;49533;-34.520;150.798;2024-01-25T08:18:28;11.85;;;3.50;;
63398;SDS011;49533;-34.520;150.798;2024-01-25T08:20:55;8.13;;;2.97;;
63398;SDS011;49533;-34.520;150.798;2024-01-25T08:23:22;8.48;;;3.80;;
63398;SDS011;49533;-34.520;150.798;2024-01-25T08:25:49;9.07;;;3.08;;
63398;SDS011;49533;-34.520;150.798;2024-01-25T08:28:17;7.88;;;3.10;;
63398;SDS011;49533;-34.520;150.798;2024-01-25T08:30:45;8.65;;;3.63;;
63398;SDS011;49533;-34.520;150.798;2024-01-25T08:33:12;9.45;;;2.92;;
63398;SDS011;49533;-34.520;150.798;2024-01-25T08:35:40;5.60;;;2.65;;
63398;SDS011;49533;-34.520;150.798;2024-01-25T08:38:12;5.82;;;3.00;;
63398;SDS011;49533;-34.520;150.798;2024-01-25T08:40:39;8.02;;;3.10;;
63398;SDS011;49533;-34.520;150.798;2024-01-25T08:43:07;6.97;;;2.78;;
63398;SDS011;49533;-34.520;150.798;2024-01-25T08:45:34;8.00;;;3.05;;
63398;SDS011;49533;-34.520;150.798;2024-01-25T08:48:02;9.07;;;3.15;;
63398;SDS011;49533;-34.520;150.798;2024-01-25T08:50:30;6.15;;;2.72;;
63398;SDS011;49533;-34.520;150.798;2024-01-25T08:52:58;8.10;;;3.13;;
63398;SDS011;49533;-34.520;150.798;2024-01-25T08:55:25;8.80;;;3.47;;
63398;SDS011;49533;-34.520;150.798;2024-01-25T08:57:53;7.32;;;2.78;;
63398;SDS011;49533;-34.520;150.798;2024-01-25T09:00:20;10.68;;;3.10;;
63398;SDS011;49533;-34.520;150.798;2024-01-25T09:02:47;6.30;;;2.92;;
63398;SDS011;49533;-34.520;150.798;2024-01-25T09:05:14;14.68;;;3.75;;
63398;SDS011;49533;-34.520;150.798;2024-01-25T09:07:41;9.25;;;3.15;;
63398;SDS011;49533;-34.520;150.798;2024-01-25T09:10:08;9.52;;;3.42;;
63398;SDS011;49533;-34.520;150.798;2024-01-25T09:12:37;10.85;;;3.60;;
63398;SDS011;49533;-34.520;150.798;2024-01-25T09:15:05;7.57;;;3.42;;
63398;SDS011;49533;-34.520;150.798;2024-01-25T09:17:33;11.27;;;3.58;;
63398;SDS011;49533;-34.520;150.798;2024-01-25T09:20:00;12.32;;;3.70;;
63398;SDS011;49533;-34.520;150.798;2024-01-25T09:22:28;12.80;;;3.83;;
63398;SDS011;49533;-34.520;150.798;2024-01-25T09:24:55;8.85;;;3.78;;
63398;SDS011;49533;-34.520;150.798;2024-01-25T09:27:22;10.45;;;3.80;;
63398;SDS011;49533;-34.520;150.798;2024-01-25T09:29:50;11.55;;;3.78;;
63398;SDS011;49533;-34.520;150.798;2024-01-25T09:32:19;9.05;;;2.97;;
63398;SDS011;49533;-34.520;150.798;2024-01-25T09:34:46;11.32;;;3.20;;
63398;SDS011;49533;-34.520;150.798;2024-01-25T09:37:13;10.00;;;3.55;;
63398;SDS011;49533;-34.520;150.798;2024-01-25T09:39:40;8.60;;;3.13;;
63398;SDS011;49533;-34.520;150.798;2024-01-25T09:42:08;7.72;;;3.30;;
63398;SDS011;49533;-34.520;150.798;2024-01-25T09:44:37;9.35;;;3.38;;
63398;SDS011;49533;-34.520;150.798;2024-01-25T09:47:06;9.80;;;3.50;;
63398;SDS011;49533;-34.520;150.798;2024-01-25T09:49:33;11.05;;;3.28;;
63398;SDS011;49533;-34.520;150.798;2024-01-25T09:52:02;8.27;;;3.47;;
63398;SDS011;49533;-34.520;150.798;2024-01-25T09:54:31;12.77;;;3.58;;
63398;SDS011;49533;-34.520;150.798;2024-01-25T09:57:13;6.72;;;3.10;;
63398;SDS011;49533;-34.520;150.798;2024-01-25T09:59:45;7.75;;;3.00;;
63398;SDS011;49533;-34.520;150.798;2024-01-25T10:02:12;9.65;;;3.42;;
63398;SDS011;49533;-34.520;150.798;2024-01-25T10:04:39;9.05;;;3.30;;
63398;SDS011;49533;-34.520;150.798;2024-01-25T10:07:06;8.85;;;3.50;;
63398;SDS011;49533;-34.520;150.798;2024-01-25T10:09:40;9.48;;;3.58;;
63398;SDS011;49533;-34.520;150.798;2024-01-25T10:12:08;7.18;;;3.15;;
63398;SDS011;49533;-34.520;150.798;2024-01-25T10:14:36;7.15;;;2.90;;
63398;SDS011;49533;-34.520;150.798;2024-01-25T10:17:03;7.43;;;3.10;;
63398;SDS011;49533;-34.520;150.798;2024-01-25T10:19:31;7.55;;;3.25;;
63398;SDS011;49533;-34.520;150.798;2024-01-25T10:21:58;5.35;;;2.60;;
63398;SDS011;49533;-34.520;150.798;2024-01-25T10:24:25;6.18;;;3.13;;
63398;SDS011;49533;-34.520;150.798;2024-01-25T10:26:53;9.77;;;3.65;;
63398;SDS011;49533;-34.520;150.798;2024-01-25T10:29:20;9.63;;;3.00;;
63398;SDS011;49533;-34.520;150.798;2024-01-25T10:31:48;7.68;;;2.60;;
63398;SDS011;49533;-34.520;150.798;2024-01-25T10:34:15;7.38;;;3.25;;
63398;SDS011;49533;-34.520;150.798;2024-01-25T10:36:43;9.00;;;3.40;;
63398;SDS011;49533;-34.520;150.798;2024-01-25T10:39:11;8.77;;;3.20;;
63398;SDS011;49533;-34.520;150.798;2024-01-25T10:41:40;7.20;;;2.97;;
63398;SDS011;49533;-34.520;150.798;2024-01-25T10:44:10;7.72;;;3.38;;
63398;SDS011;49533;-34.520;150.798;2024-01-25T10:46:37;5.55;;;3.00;;
63398;SDS011;49533;-34.520;150.798;2024-01-25T10:49:06;9.35;;;3.28;;
63398;SDS011;49533;-34.520;150.798;2024-01-25T10:51:34;7.97;;;3.30;;
63398;SDS011;49533;-34.520;150.798;2024-01-25T10:54:01;8.40;;;3.42;;
63398;SDS011;49533;-34.520;150.798;2024-01-25T10:56:32;8.57;;;3.40;;
63398;SDS011;49533;-34.520;150.798;2024-01-25T10:59:03;8.38;;;3.10;;
63398;SDS011;49533;-34.520;150.798;2024-01-25T11:01:33;6.80;;;2.75;;
63398;SDS011;49533;-34.520;150.798;2024-01-25T11:04:00;7.50;;;3.10;;
63398;SDS011;49533;-34.520;150.798;2024-01-25T11:06:28;6.07;;;2.92;;
63398;SDS011;49533;-34.520;150.798;2024-01-25T11:09:04;11.10;;;3.15;;
63398;SDS011;49533;-34.520;150.798;2024-01-25T11:11:32;6.43;;;3.13;;
63398;SDS011;49533;-34.520;150.798;2024-01-25T11:14:02;6.47;;;2.97;;
63398;SDS011;49533;-34.520;150.798;2024-01-25T11:16:30;7.40;;;2.67;;
63398;SDS011;49533;-34.520;150.798;2024-01-25T11:19:01;6.60;;;3.13;;
63398;SDS011;49533;-34.520;150.798;2024-01-25T11:21:43;6.53;;;2.70;;
63398;SDS011;49533;-34.520;150.798;2024-01-25T11:24:19;6.38;;;2.50;;
63398;SDS011;49533;-34.520;150.798;2024-01-25T11:26:48;9.32;;;3.22;;
63398;SDS011;49533;-34.520;150.798;2024-01-25T11:29:16;8.20;;;3.17;;
63398;SDS011;49533;-34.520;150.798;2024-01-25T11:31:46;6.20;;;2.78;;
63398;SDS011;49533;-34.520;150.798;2024-01-25T11:34:16;7.63;;;2.90;;
63398;SDS011;49533;-34.520;150.798;2024-01-25T11:36:47;9.68;;;2.90;;
63398;SDS011;49533;-34.520;150.798;2024-01-25T11:39:15;6.20;;;2.65;;
63398;SDS011;49533;-34.520;150.798;2024-01-25T11:41:43;7.45;;;2.63;;
63398;SDS011;49533;-34.520;150.798;2024-01-25T11:44:11;8.10;;;3.13;;
63398;SDS011;49533;-34.520;150.798;2024-01-25T11:46:42;6.18;;;2.85;;
63398;SDS011;49533;-34.520;150.798;2024-01-25T11:49:09;7.47;;;2.90;;
63398;SDS011;49533;-34.520;150.798;2024-01-25T11:51:37;7.55;;;3.22;;
63398;SDS011;49533;-34.520;150.798;2024-01-25T11:54:04;9.38;;;3.10;;
63398;SDS011;49533;-34.520;150.798;2024-01-25T11:56:33;7.85;;;3.50;;
63398;SDS011;49533;-34.520;150.798;2024-01-25T11:59:08;9.63;;;3.33;;
63398;SDS011;49533;-34.520;150.798;2024-01-25T12:01:37;9.48;;;3.40;;
63398;SDS011;49533;-34.520;150.798;2024-01-25T12:04:05;9.30;;;2.67;;
63398;SDS011;49533;-34.520;150.798;2024-01-25T12:06:32;8.38;;;3.25;;
63398;SDS011;49533;-34.520;150.798;2024-01-25T12:09:08;6.15;;;2.80;;
63398;SDS011;49533;-34.520;150.798;2024-01-25T12:11:36;6.57;;;2.95;;
63398;SDS011;49533;-34.520;150.798;2024-01-25T12:14:04;8.07;;;3.45;;
63398;SDS011;49533;-34.520;150.798;2024-01-25T12:16:33;8.25;;;3.28;;
63398;SDS011;49533;-34.520;150.798;2024-01-25T12:19:00;8.20;;;2.97;;
63398;SDS011;49533;-34.520;150.798;2024-01-25T12:21:28;10.27;;;3.22;;
63398;SDS011;49533;-34.520;150.798;2024-01-25T12:24:00;7.50;;;2.72;;
63398;SDS011;49533;-34.520;150.798;2024-01-25T12:26:27;7.15;;;2.75;;
63398;SDS011;49533;-34.520;150.798;2024-01-25T12:28:54;8.98;;;3.10;;
63398;SDS011;49533;-34.520;150.798;2024-01-25T12:31:21;4.70;;;2.72;;
63398;SDS011;49533;-34.520;150.798;2024-01-25T12:33:48;5.88;;;2.35;;
63398;SDS011;49533;-34.520;150.798;2024-01-25T12:36:16;7.88;;;3.28;;
63398;SDS011;49533;-34.520;150.798;2024-01-25T12:38:43;6.78;;;2.83;;
63398;SDS011;49533;-34.520;150.798;2024-01-25T12:41:10;8.13;;;2.97;;
63398;SDS011;49533;-34.520;150.798;2024-01-25T12:43:37;5.55;;;2.83;;
63398;SDS011;49533;-34.520;150.798;2024-01-25T12:46:04;5.45;;;2.75;;
63398;SDS011;49533;-34.520;150.798;2024-01-25T12:48:31;5.07;;;2.70;;
63398;SDS011;49533;-34.520;150.798;2024-01-25T12:50:58;8.35;;;3.10;;
63398;SDS011;49533;-34.520;150.798;2024-01-25T12:53:25;7.28;;;3.05;;
63398;SDS011;49533;-34.520;150.798;2024-01-25T12:55:52;8.05;;;2.95;;
63398;SDS011;49533;-34.520;150.798;2024-01-25T12:58:19;5.55;;;2.40;;
63398;SDS011;49533;-34.520;150.798;2024-01-25T13:00:47;8.15;;;2.90;;
63398;SDS011;49533;-34.520;150.798;2024-01-25T13:03:14;5.15;;;1.95;;
63398;SDS011;49533;-34.520;150.798;2024-01-25T13:05:46;6.32;;;2.55;;
63398;SDS011;49533;-34.520;150.798;2024-01-25T13:08:13;5.57;;;2.22;;
63398;SDS011;49533;-34.520;150.798;2024-01-25T13:10:40;9.18;;;2.97;;
63398;SDS011;49533;-34.520;150.798;2024-01-25T13:13:07;8.68;;;2.55;;
63398;SDS011;49533;-34.520;150.798;2024-01-25T13:15:34;4.70;;;2.20;;
63398;SDS011;49533;-34.520;150.798;2024-01-25T13:18:01;5.30;;;2.47;;
63398;SDS011;49533;-34.520;150.798;2024-01-25T13:20:28;7.25;;;2.90;;
63398;SDS011;49533;-34.520;150.798;2024-01-25T13:22:55;9.68;;;2.85;;
63398;SDS011;49533;-34.520;150.798;2024-01-25T13:25:22;6.10;;;2.75;;
63398;SDS011;49533;-34.520;150.798;2024-01-25T13:27:49;7.55;;;2.70;;
63398;SDS011;49533;-34.520;150.798;2024-01-25T13:30:17;7.82;;;2.97;;
63398;SDS011;49533;-34.520;150.798;2024-01-25T13:32:44;6.47;;;2.72;;
63398;SDS011;49533;-34.520;150.798;2024-01-25T13:35:11;6.50;;;2.35;;
63398;SDS011;49533;-34.520;150.798;2024-01-25T13:37:38;7.13;;;2.28;;
63398;SDS011;49533;-34.520;150.798;2024-01-25T13:40:05;4.07;;;2.15;;
63398;SDS011;49533;-34.520;150.798;2024-01-25T13:42:33;6.85;;;2.45;;
63398;SDS011;49533;-34.520;150.798;2024-01-25T13:45:00;5.38;;;2.22;;
63398;SDS011;49533;-34.520;150.798;2024-01-25T13:47:27;4.55;;;2.17;;
63398;SDS011;49533;-34.520;150.798;2024-01-25T13:49:57;6.28;;;2.33;;
63398;SDS011;49533;-34.520;150.798;2024-01-25T13:52:25;7.15;;;2.50;;
63398;SDS011;49533;-34.520;150.798;2024-01-25T13:54:52;6.75;;;2.75;;
63398;SDS011;49533;-34.520;150.798;2024-01-25T13:57:20;3.83;;;2.38;;
63398;SDS011;49533;-34.520;150.798;2024-01-25T13:59:49;4.28;;;2.20;;
63398;SDS011;49533;-34.520;150.798;2024-01-25T14:02:17;5.50;;;2.38;;
63398;SDS011;49533;-34.520;150.798;2024-01-25T14:04:44;6.30;;;2.70;;
63398;SDS011;49533;-34.520;150.798;2024-01-25T14:07:13;5.65;;;2.22;;